Time;durP1;ratioP1;P1;durP2;ratioP2;P2;SDS_P1;SDS_P2;PMS_P1;PMS_P2;Temp;Humidity;BMP_temperature;BMP_pressure;BME280_temperature;BME280_humidity;BME280_pressure;Samples;Min_cycle;Max_cycle;Signal;HPM_P1;HPM_P2
2022/07/09 00:01:26;;;;;;;13.50;5.40;;;17.10;99.90;;;;;;5072040;28;20047;-71
2022/07/09 00:03:52;;;;;;;14.60;5.90;;;17.10;99.90;;;;;;5071632;28;20496;-70
2022/07/09 00:06:18;;;;;;;12.68;5.80;;;17.10;99.90;;;;;;5071736;28;20044;-71
2022/07/09 00:08:44;;;;;;;14.07;5.95;;;17.10;99.90;;;;;;5071642;28;20045;-71
2022/07/09 00:11:10;;;;;;;12.68;6.10;;;17.10;99.90;;;;;;5072800;28;20098;-71
2022/07/09 00:13:35;;;;;;;12.43;5.45;;;17.00;99.90;;;;;;5071751;28;20534;-71
2022/07/09 00:16:01;;;;;;;11.93;5.53;;;17.00;99.90;;;;;;5071611;28;20455;-71
2022/07/09 00:18:26;;;;;;;12.15;5.93;;;17.00;99.90;;;;;;5071568;28;20040;-71
2022/07/09 00:20:55;;;;;;;15.23;5.72;;;16.90;99.90;;;;;;5071532;28;20145;-71
2022/07/09 00:23:21;;;;;;;11.32;5.60;;;16.90;99.90;;;;;;5071476;28;20044;-71
2022/07/09 00:25:46;;;;;;;13.02;4.90;;;16.90;99.90;;;;;;5071518;28;20040;-71
2022/07/09 00:28:12;;;;;;;13.10;5.78;;;16.80;99.90;;;;;;5071816;28;20068;-71
2022/07/09 00:30:38;;;;;;;14.25;5.88;;;16.80;99.90;;;;;;5073239;28;20039;-71
2022/07/09 00:33:03;;;;;;;12.57;5.05;;;16.80;99.90;;;;;;5076780;28;20073;-71
2022/07/09 00:35:29;;;;;;;13.93;6.10;;;16.80;99.90;;;;;;5075350;28;20390;-71
2022/07/09 00:37:55;;;;;;;12.60;5.40;;;16.80;99.90;;;;;;5075453;28;20048;-71
2022/07/09 00:40:20;;;;;;;15.13;5.75;;;16.80;99.90;;;;;;5075521;28;20036;-71
2022/07/09 00:42:46;;;;;;;14.23;5.80;;;16.80;99.90;;;;;;5075100;28;20037;-71
2022/07/09 00:45:11;;;;;;;16.33;5.80;;;16.70;99.90;;;;;;5075152;28;20040;-71
2022/07/09 00:47:37;;;;;;;9.82;5.20;;;16.70;99.90;;;;;;5075035;28;20177;-71
2022/07/09 00:50:04;;;;;;;16.33;5.82;;;16.70;99.90;;;;;;5075012;28;20037;-71
2022/07/09 00:52:31;;;;;;;15.80;5.93;;;16.70;99.90;;;;;;5059049;28;20041;-71
2022/07/09 00:54:59;;;;;;;15.07;5.72;;;16.60;99.90;;;;;;5074967;28;20040;-71
2022/07/09 00:57:25;;;;;;;11.98;5.32;;;16.60;99.90;;;;;;5074869;28;20047;-71
2022/07/09 00:59:51;;;;;;;14.32;5.47;;;16.60;99.90;;;;;;5075137;28;20115;-71
2022/07/09 01:02:21;;;;;;;12.38;5.47;;;16.60;99.90;;;;;;5075066;28;20385;-71
2022/07/09 01:04:47;;;;;;;13.07;5.00;;;16.60;99.90;;;;;;5074778;28;20553;-71
2022/07/09 01:07:12;;;;;;;14.32;5.18;;;16.50;99.90;;;;;;5074984;28;20048;-71
2022/07/09 01:09:38;;;;;;;13.85;6.05;;;16.50;99.90;;;;;;5074827;28;20411;-71
2022/07/09 01:12:05;;;;;;;9.48;5.70;;;16.50;99.90;;;;;;5076428;28;20374;-71
2022/07/09 01:14:30;;;;;;;16.83;5.65;;;16.50;99.90;;;;;;5074634;28;20040;-71
2022/07/09 01:17:02;;;;;;;15.30;6.15;;;16.50;99.90;;;;;;5074564;28;20408;-71
2022/07/09 01:19:28;;;;;;;14.88;6.18;;;16.50;99.90;;;;;;5074530;28;20504;-71
2022/07/09 01:21:54;;;;;;;15.75;6.40;;;16.50;99.90;;;;;;5074678;28;20063;-71
2022/07/09 01:24:21;;;;;;;13.10;6.28;;;16.50;99.90;;;;;;5074411;28;20496;-71
2022/07/09 01:26:47;;;;;;;14.68;6.45;;;16.60;99.90;;;;;;5074414;28;20058;-71
2022/07/09 01:29:13;;;;;;;15.57;6.85;;;16.60;99.90;;;;;;5074345;28;20409;-71
2022/07/09 01:31:39;;;;;;;14.57;6.15;;;16.60;99.90;;;;;;5074571;28;20036;-71
2022/07/09 01:34:04;;;;;;;17.45;6.80;;;16.60;99.90;;;;;;5074117;28;20518;-71
2022/07/09 01:36:30;;;;;;;14.63;7.30;;;16.60;99.90;;;;;;5074194;28;20081;-71
2022/07/09 01:38:55;;;;;;;15.00;6.75;;;16.60;99.90;;;;;;5074462;28;20417;-71
2022/07/09 01:41:21;;;;;;;18.15;7.70;;;16.60;99.90;;;;;;5074074;28;20112;-71
2022/07/09 01:43:46;;;;;;;17.35;7.35;;;16.60;99.90;;;;;;5073987;28;20127;-71
2022/07/09 01:46:12;;;;;;;16.92;6.65;;;16.60;99.90;;;;;;5074017;28;20051;-71
2022/07/09 01:48:42;;;;;;;14.88;7.15;;;16.60;99.90;;;;;;5074007;28;20079;-71
2022/07/09 01:51:08;;;;;;;13.23;7.65;;;16.60;99.90;;;;;;5073950;28;20504;-71
2022/07/09 01:53:34;;;;;;;15.90;7.43;;;16.60;99.90;;;;;;5073726;28;20040;-71
2022/07/09 01:56:05;;;;;;;13.07;7.28;;;16.60;99.90;;;;;;5073882;28;20051;-71
2022/07/09 01:58:30;;;;;;;13.63;7.72;;;16.60;99.90;;;;;;5074074;28;20528;-71
2022/07/09 02:00:56;;;;;;;16.77;7.63;;;16.60;99.90;;;;;;5073726;28;20037;-71
2022/07/09 02:03:22;;;;;;;13.63;7.68;;;16.60;99.90;;;;;;5073653;28;20044;-71
2022/07/09 02:05:48;;;;;;;15.30;7.80;;;16.60;99.90;;;;;;5073702;28;20048;-71
2022/07/09 02:08:14;;;;;;;14.07;7.25;;;16.70;99.90;;;;;;5057004;28;20032;-71
2022/07/09 02:10:39;;;;;;;16.45;8.25;;;16.70;99.90;;;;;;5073434;28;20039;-71
2022/07/09 02:13:05;;;;;;;12.95;7.30;;;16.70;99.90;;;;;;5056736;28;20040;-71
2022/07/09 02:15:31;;;;;;;20.75;8.00;;;16.70;99.90;;;;;;5073362;28;20033;-71
2022/07/09 02:17:57;;;;;;;13.57;7.40;;;16.70;99.90;;;;;;5074622;28;20166;-71
2022/07/09 02:20:22;;;;;;;16.63;7.90;;;16.70;99.90;;;;;;5073343;28;20082;-70
2022/07/09 02:22:48;;;;;;;17.02;7.68;;;16.70;99.90;;;;;;5073226;28;20041;-70
2022/07/09 02:25:14;;;;;;;15.07;7.18;;;16.70;99.90;;;;;;5073517;28;20076;-71
2022/07/09 02:27:39;;;;;;;13.98;6.57;;;16.80;99.90;;;;;;5073186;28;20041;-71
2022/07/09 02:30:05;;;;;;;14.43;7.03;;;16.70;99.90;;;;;;5073075;28;20043;-71
2022/07/09 02:32:31;;;;;;;12.57;7.13;;;16.80;99.90;;;;;;5073248;28;20040;-71
2022/07/09 02:34:57;;;;;;;13.88;6.75;;;16.80;99.90;;;;;;5073004;28;20090;-71
2022/07/09 02:37:22;;;;;;;16.67;7.63;;;16.80;99.90;;;;;;5056320;28;20378;-71
2022/07/09 02:39:48;;;;;;;13.00;6.30;;;16.70;99.90;;;;;;5056319;28;20037;-71
2022/07/09 02:42:13;;;;;;;15.32;6.63;;;16.80;99.90;;;;;;5072807;28;20080;-71
2022/07/09 02:44:40;;;;;;;13.18;6.68;;;16.80;99.90;;;;;;5073147;28;20047;-71
2022/07/09 02:47:05;;;;;;;12.75;6.38;;;16.80;99.90;;;;;;5072786;28;20048;-71
2022/07/09 02:49:31;;;;;;;14.38;6.22;;;16.80;99.90;;;;;;5072729;28;20055;-71
2022/07/09 02:51:59;;;;;;;12.25;6.43;;;16.80;99.90;;;;;;5072635;28;20040;-71
2022/07/09 02:54:24;;;;;;;13.65;6.50;;;16.80;99.90;;;;;;5055586;28;20040;-71
2022/07/09 02:56:50;;;;;;;11.18;6.18;;;16.80;99.90;;;;;;5072542;28;20036;-70
2022/07/09 02:59:15;;;;;;;15.57;6.90;;;16.80;99.90;;;;;;5072612;28;20474;-71
2022/07/09 03:01:41;;;;;;;10.30;6.07;;;16.80;99.90;;;;;;5072735;28;20051;-71
2022/07/09 03:04:06;;;;;;;15.95;6.55;;;16.80;99.90;;;;;;5072521;28;20080;-71
2022/07/09 03:06:32;;;;;;;15.40;6.82;;;16.80;99.90;;;;;;5072422;28;20048;-71
2022/07/09 03:08:58;;;;;;;15.15;6.47;;;16.80;99.90;;;;;;5072467;28;20040;-71
2022/07/09 03:11:23;;;;;;;10.65;5.95;;;16.80;99.90;;;;;;5072296;28;20044;-71
2022/07/09 03:13:49;;;;;;;15.38;6.05;;;16.80;99.90;;;;;;5072169;28;20051;-70
2022/07/09 03:16:14;;;;;;;12.48;6.20;;;16.80;99.90;;;;;;5072265;28;20040;-70
2022/07/09 03:18:40;;;;;;;19.25;6.15;;;16.80;99.90;;;;;;5072265;28;20071;-70
2022/07/09 03:21:08;;;;;;;13.85;5.55;;;16.70;99.90;;;;;;5072232;28;20076;-70
2022/07/09 03:23:33;;;;;;;17.42;6.78;;;16.70;99.90;;;;;;5072128;28;20493;-71
2022/07/09 03:25:59;;;;;;;11.48;6.03;;;16.70;99.90;;;;;;5072443;28;20170;-71
2022/07/09 03:28:25;;;;;;;12.60;5.90;;;16.70;99.90;;;;;;5072446;28;20493;-71
2022/07/09 03:30:50;;;;;;;15.15;5.97;;;16.70;99.90;;;;;;5072129;28;20406;-71
2022/07/09 03:33:17;;;;;;;15.10;6.18;;;16.70;99.90;;;;;;5072249;28;20040;-71
2022/07/09 03:35:43;;;;;;;11.85;6.13;;;16.70;99.90;;;;;;5072270;28;20463;-71
2022/07/09 03:38:09;;;;;;;13.05;5.97;;;16.70;99.90;;;;;;5072042;28;20036;-71
2022/07/09 03:40:34;;;;;;;9.32;5.20;;;16.70;99.90;;;;;;5071967;28;20124;-71
2022/07/09 03:43:00;;;;;;;14.88;6.18;;;16.70;99.90;;;;;;5071888;28;20032;-71
2022/07/09 03:45:25;;;;;;;13.90;6.00;;;16.60;99.90;;;;;;5071963;28;20095;-71
2022/07/09 03:47:51;;;;;;;13.25;6.07;;;16.60;99.90;;;;;;5071883;28;20123;-71
2022/07/09 03:50:17;;;;;;;13.15;6.07;;;16.60;99.90;;;;;;5071859;28;20067;-71
2022/07/09 03:52:43;;;;;;;11.02;5.90;;;16.60;99.90;;;;;;5071750;28;20461;-71
2022/07/09 03:55:09;;;;;;;11.43;5.90;;;16.60;99.90;;;;;;5071848;28;20083;-71
2022/07/09 03:57:34;;;;;;;12.95;5.97;;;16.60;99.90;;;;;;5072061;28;20370;-71
2022/07/09 04:00:00;;;;;;;9.88;6.07;;;16.60;99.90;;;;;;5071727;28;20439;-71
2022/07/09 04:02:25;;;;;;;10.73;5.90;;;16.60;99.90;;;;;;5071678;28;20040;-71
2022/07/09 04:04:51;;;;;;;11.15;5.88;;;16.60;99.90;;;;;;5072277;28;20086;-71
2022/07/09 04:07:17;;;;;;;12.80;6.18;;;16.60;99.90;;;;;;5076222;28;20158;-71
2022/07/09 04:09:42;;;;;;;14.27;6.57;;;16.60;99.90;;;;;;5075659;28;20049;-71
2022/07/09 04:12:08;;;;;;;13.40;6.43;;;16.60;99.90;;;;;;5076011;28;20076;-71
2022/07/09 04:14:34;;;;;;;12.55;6.47;;;16.70;99.90;;;;;;5075705;28;20501;-71
2022/07/09 04:17:00;;;;;;;12.18;6.85;;;16.60;99.90;;;;;;5075726;28;20041;-71
2022/07/09 04:19:25;;;;;;;13.60;6.95;;;16.60;99.90;;;;;;5075700;28;20033;-71
2022/07/09 04:21:51;;;;;;;12.50;6.80;;;16.60;99.90;;;;;;5075831;28;20036;-71
2022/07/09 04:24:16;;;;;;;11.85;6.68;;;16.70;99.90;;;;;;5075575;28;20574;-71
2022/07/09 04:26:45;;;;;;;12.85;7.20;;;16.70;99.90;;;;;;5075502;28;20054;-70
2022/07/09 04:29:11;;;;;;;14.50;7.75;;;16.70;99.90;;;;;;5075489;28;20098;-70
2022/07/09 04:31:36;;;;;;;14.95;8.18;;;16.70;99.90;;;;;;5075440;28;20094;-71
2022/07/09 04:34:02;;;;;;;13.90;8.13;;;16.70;99.90;;;;;;5075220;28;20051;-71
2022/07/09 04:36:29;;;;;;;13.45;7.95;;;16.80;99.90;;;;;;5058834;28;20135;-71
2022/07/09 04:38:55;;;;;;;14.30;7.68;;;16.80;99.90;;;;;;5075497;28;20052;-71
2022/07/09 04:41:21;;;;;;;14.38;7.25;;;16.80;99.90;;;;;;5075714;28;20044;-71
2022/07/09 04:43:46;;;;;;;13.20;7.88;;;16.80;99.90;;;;;;5075310;28;20048;-71
2022/07/09 04:46:13;;;;;;;12.38;7.22;;;16.80;99.90;;;;;;5075131;28;20127;-71
2022/07/09 04:48:39;;;;;;;15.00;7.88;;;16.80;99.90;;;;;;5075042;28;20416;-71
2022/07/09 04:51:05;;;;;;;15.95;8.48;;;16.80;99.90;;;;;;5075065;28;20033;-71
2022/07/09 04:53:30;;;;;;;14.77;8.40;;;16.90;99.90;;;;;;5074876;28;20094;-71
2022/07/09 04:55:56;;;;;;;16.13;8.18;;;16.90;99.90;;;;;;5074896;28;20105;-71
2022/07/09 04:58:22;;;;;;;21.02;8.75;;;17.00;99.90;;;;;;5074894;28;20037;-71
2022/07/09 05:00:47;;;;;;;12.80;8.18;;;16.90;99.90;;;;;;5074858;28;20044;-71
2022/07/09 05:03:13;;;;;;;15.23;8.52;;;17.00;99.90;;;;;;5074740;28;20037;-70
2022/07/09 05:05:38;;;;;;;14.60;8.40;;;17.00;99.90;;;;;;5074718;28;20119;-71
2022/07/09 05:08:04;;;;;;;13.90;8.93;;;17.00;99.90;;;;;;5074702;28;20033;-71
2022/07/09 05:10:29;;;;;;;13.70;8.40;;;17.00;99.90;;;;;;5074885;28;20043;-71
2022/07/09 05:12:55;;;;;;;14.32;8.55;;;17.00;99.90;;;;;;5074590;28;20496;-71
2022/07/09 05:15:22;;;;;;;16.30;9.15;;;17.10;99.90;;;;;;5074327;28;20044;-71
2022/07/09 05:17:47;;;;;;;14.43;9.15;;;17.10;99.90;;;;;;5074312;28;20489;-71
2022/07/09 05:20:13;;;;;;;14.07;8.18;;;17.10;99.90;;;;;;5074544;28;20036;-71
2022/07/09 05:22:39;;;;;;;15.52;8.25;;;17.10;99.90;;;;;;5074481;28;20091;-71
2022/07/09 05:25:05;;;;;;;16.38;8.68;;;17.10;99.90;;;;;;5075716;28;20040;-71
2022/07/09 05:27:31;;;;;;;12.82;9.40;;;17.20;99.90;;;;;;5074396;28;20045;-71
2022/07/09 05:29:57;;;;;;;14.82;8.07;;;17.20;99.90;;;;;;5074381;28;20160;-72
2022/07/09 05:32:22;;;;;;;14.35;8.50;;;17.20;99.90;;;;;;5074266;28;20066;-71
2022/07/09 05:34:48;;;;;;;13.57;8.60;;;17.30;99.90;;;;;;5074331;28;20078;-71
2022/07/09 05:37:14;;;;;;;15.20;8.80;;;17.30;99.90;;;;;;5074267;28;20040;-71
2022/07/09 05:39:40;;;;;;;12.77;8.85;;;17.30;99.90;;;;;;5074206;28;20045;-70
2022/07/09 05:42:05;;;;;;;14.63;8.27;;;17.40;99.90;;;;;;5074072;28;20074;-69
2022/07/09 05:44:31;;;;;;;16.30;8.68;;;17.40;99.90;;;;;;5074389;28;20093;-69
2022/07/09 05:46:57;;;;;;;12.70;7.88;;;17.40;99.90;;;;;;5075885;28;20462;-69
2022/07/09 05:49:23;;;;;;;10.77;7.60;;;17.50;99.90;;;;;;5074280;28;20066;-69
2022/07/09 05:51:48;;;;;;;12.52;7.28;;;17.50;99.90;;;;;;5073903;28;20460;-69
2022/07/09 05:54:14;;;;;;;10.05;7.60;;;17.60;99.90;;;;;;5073845;28;20417;-69
2022/07/09 05:56:41;;;;;;;13.13;7.60;;;17.60;99.90;;;;;;5073862;28;20041;-69
2022/07/09 05:59:06;;;;;;;11.57;7.47;;;17.70;99.90;;;;;;5074064;28;20043;-68
2022/07/09 06:01:32;;;;;;;13.25;7.55;;;17.70;99.90;;;;;;5074079;28;20511;-68
2022/07/09 06:03:58;;;;;;;12.05;7.10;;;17.70;99.90;;;;;;5073912;28;20044;-69
2022/07/09 06:06:24;;;;;;;12.40;7.13;;;17.80;99.90;;;;;;5073628;28;20507;-69
2022/07/09 06:08:50;;;;;;;10.00;6.03;;;17.80;99.90;;;;;;5057055;28;20405;-68
2022/07/09 06:11:15;;;;;;;10.55;5.57;;;17.80;99.90;;;;;;5073757;28;20040;-69
2022/07/09 06:13:41;;;;;;;11.77;6.10;;;17.90;99.90;;;;;;5073698;28;20190;-69
2022/07/09 06:16:07;;;;;;;9.10;5.32;;;17.90;99.90;;;;;;5073670;28;20461;-69
2022/07/09 06:18:32;;;;;;;8.18;5.68;;;17.90;99.90;;;;;;5073793;28;20123;-69
2022/07/09 06:20:58;;;;;;;11.32;5.75;;;18.00;99.90;;;;;;5073385;28;20119;-69
2022/07/09 06:23:24;;;;;;;8.95;5.07;;;18.00;99.90;;;;;;5074809;28;20044;-69
2022/07/09 06:25:49;;;;;;;9.32;5.15;;;18.00;99.90;;;;;;5073605;28;20448;-69
2022/07/09 06:28:15;;;;;;;9.00;5.07;;;18.00;99.90;;;;;;5072374;28;20040;-69
2022/07/09 06:30:41;;;;;;;9.18;5.40;;;18.10;99.90;;;;;;5073413;28;20481;-69
2022/07/09 06:33:06;;;;;;;9.50;5.15;;;18.10;99.90;;;;;;5073096;28;20448;-69
2022/07/09 06:35:32;;;;;;;10.30;4.28;;;18.10;99.90;;;;;;5073084;28;20044;-69
2022/07/09 06:37:58;;;;;;;8.23;4.82;;;18.10;99.90;;;;;;5073034;28;20484;-69
2022/07/09 06:40:24;;;;;;;10.93;5.00;;;18.20;99.90;;;;;;5073048;28;20040;-69
2022/07/09 06:42:49;;;;;;;10.77;4.63;;;18.20;99.90;;;;;;5073119;28;20044;-69
2022/07/09 06:45:15;;;;;;;7.63;4.18;;;18.20;99.90;;;;;;5073096;28;20423;-69
2022/07/09 06:47:41;;;;;;;8.35;3.97;;;18.20;99.90;;;;;;5073098;28;20053;-68
2022/07/09 06:50:06;;;;;;;8.88;4.45;;;18.20;99.90;;;;;;5072837;28;20434;-69
2022/07/09 06:52:32;;;;;;;6.03;3.90;;;18.20;99.90;;;;;;5056048;28;20055;-69
2022/07/09 06:54:58;;;;;;;10.00;4.22;;;18.20;99.90;;;;;;5072635;28;20044;-69
2022/07/09 06:57:23;;;;;;;8.57;4.22;;;18.20;99.90;;;;;;5072795;28;20044;-69
2022/07/09 06:59:49;;;;;;;11.00;4.10;;;18.20;99.90;;;;;;5056261;28;20040;-69
2022/07/09 07:02:17;;;;;;;8.35;4.47;;;18.30;99.90;;;;;;5072661;28;20036;-69
2022/07/09 07:04:44;;;;;;;7.25;3.72;;;18.30;99.90;;;;;;5055961;28;20520;-69
2022/07/09 07:07:09;;;;;;;6.15;3.88;;;18.30;99.90;;;;;;5072671;28;20094;-69
2022/07/09 07:09:35;;;;;;;7.93;3.55;;;18.40;99.90;;;;;;5072339;28;20109;-69
2022/07/09 07:12:01;;;;;;;7.47;3.63;;;18.50;99.90;;;;;;5072760;28;20044;-70
2022/07/09 07:14:27;;;;;;;7.28;3.55;;;18.60;99.90;;;;;;5072276;28;20115;-70
2022/07/09 07:16:53;;;;;;;9.18;3.92;;;18.60;99.90;;;;;;5072627;28;20053;-71
2022/07/09 07:19:22;;;;;;;11.02;4.07;;;18.60;99.90;;;;;;5072263;28;20401;-69
2022/07/09 07:21:48;;;;;;;8.85;4.15;;;18.70;99.90;;;;;;5072437;28;20044;-69
2022/07/09 07:24:14;;;;;;;7.57;3.28;;;18.70;99.90;;;;;;5072144;28;20400;-69
2022/07/09 07:26:40;;;;;;;10.13;3.60;;;18.70;99.90;;;;;;5072170;28;20128;-69
2022/07/09 07:29:05;;;;;;;5.72;3.53;;;18.70;99.90;;;;;;5073386;28;20111;-69
2022/07/09 07:31:31;;;;;;;7.13;3.40;;;18.80;99.90;;;;;;5072122;28;20040;-69
2022/07/09 07:33:57;;;;;;;8.63;3.38;;;18.80;99.90;;;;;;5073407;28;20124;-69
2022/07/09 07:36:23;;;;;;;9.15;3.42;;;18.70;99.90;;;;;;5072038;28;20051;-69
2022/07/09 07:38:49;;;;;;;7.30;3.03;;;18.80;99.90;;;;;;5055268;28;20032;-69
2022/07/09 07:41:16;;;;;;;8.15;3.15;;;18.70;99.90;;;;;;5072272;28;20037;-69
2022/07/09 07:43:42;;;;;;;7.03;2.80;;;18.70;99.90;;;;;;5071969;28;20044;-69
2022/07/09 07:46:08;;;;;;;6.13;3.00;;;18.80;99.90;;;;;;5072238;28;20044;-69
2022/07/09 07:48:35;;;;;;;5.68;2.70;;;18.80;99.90;;;;;;5071861;28;20032;-70
2022/07/09 07:51:02;;;;;;;7.10;2.67;;;18.80;99.90;;;;;;5072129;28;20048;-69
2022/07/09 07:53:29;;;;;;;4.00;2.17;;;18.90;99.90;;;;;;5071677;28;20485;-69
2022/07/09 07:55:55;;;;;;;4.80;2.00;;;18.80;99.90;;;;;;5071828;28;20115;-69
2022/07/09 07:58:20;;;;;;;5.53;2.22;;;18.80;99.90;;;;;;5071833;28;20131;-69
2022/07/09 08:00:46;;;;;;;6.70;2.20;;;18.90;99.90;;;;;;5071724;28;20036;-69
2022/07/09 08:03:11;;;;;;;6.25;2.00;;;18.90;99.90;;;;;;5071683;28;20041;-69
2022/07/09 08:05:37;;;;;;;6.18;2.20;;;19.00;99.90;;;;;;5071743;28;20040;-69
2022/07/09 08:08:03;;;;;;;9.20;2.30;;;19.10;99.90;;;;;;5071716;28;20117;-69
2022/07/09 08:10:28;;;;;;;6.85;2.00;;;19.30;99.90;;;;;;5071766;28;20076;-69
2022/07/09 08:12:54;;;;;;;7.95;1.90;;;19.50;99.90;;;;;;5071499;28;20080;-69
2022/07/09 08:15:19;;;;;;;4.90;1.65;;;19.70;99.90;;;;;;5071588;28;20040;-70
2022/07/09 08:17:45;;;;;;;5.18;1.90;;;20.00;99.90;;;;;;5071691;28;20086;-70
2022/07/09 08:20:11;;;;;;;4.40;2.13;;;20.30;99.90;;;;;;5071848;28;20044;-70
2022/07/09 08:22:36;;;;;;;4.38;1.65;;;20.40;99.90;;;;;;5054753;28;20489;-70
2022/07/09 08:25:03;;;;;;;3.85;1.58;;;20.50;99.90;;;;;;5071567;28;20047;-70
2022/07/09 08:27:29;;;;;;;5.88;1.80;;;20.60;99.90;;;;;;5071589;28;20047;-70
2022/07/09 08:29:55;;;;;;;5.60;1.60;;;20.70;99.90;;;;;;5071828;28;20509;-70
2022/07/09 08:32:20;;;;;;;5.28;1.77;;;20.80;99.90;;;;;;5071486;28;20409;-70
2022/07/09 08:34:46;;;;;;;5.72;1.80;;;20.90;99.90;;;;;;5071378;28;20413;-70
2022/07/09 08:37:12;;;;;;;6.47;1.80;;;20.90;99.90;;;;;;5072727;28;20036;-69
2022/07/09 08:39:38;;;;;;;6.80;1.83;;;21.00;99.90;;;;;;5055006;28;20036;-69
2022/07/09 08:42:10;;;;;;;5.60;1.80;;;21.10;99.90;;;;;;5071267;28;20477;-70
2022/07/09 08:44:38;;;;;;;6.45;1.75;;;21.30;99.90;;;;;;5054706;28;20051;-70
2022/07/09 08:47:05;;;;;;;4.70;1.50;;;21.50;99.90;;;;;;5071330;28;20059;-70
2022/07/09 08:49:31;;;;;;;3.70;1.70;;;21.80;99.90;;;;;;5071350;28;20041;-70
2022/07/09 08:51:57;;;;;;;6.53;1.67;;;22.10;99.90;;;;;;5074662;28;20063;-70
2022/07/09 08:54:23;;;;;;;5.40;1.20;;;22.40;99.90;;;;;;5058251;28;20048;-70
2022/07/09 08:56:52;;;;;;;4.88;1.40;;;22.50;99.90;;;;;;5074933;28;20531;-70
2022/07/09 08:59:18;;;;;;;4.13;1.40;;;22.50;99.90;;;;;;5074946;28;20032;-70
2022/07/09 09:01:43;;;;;;;2.85;1.00;;;22.60;99.90;;;;;;5076661;28;20044;-70
2022/07/09 09:04:09;;;;;;;5.28;1.08;;;22.60;99.90;;;;;;5058262;28;20059;-70
2022/07/09 09:06:42;;;;;;;3.10;1.20;;;22.40;99.90;;;;;;5074766;28;20097;-70
2022/07/09 09:09:10;;;;;;;7.40;1.20;;;22.30;99.90;;;;;;5058115;28;20093;-70
2022/07/09 09:11:36;;;;;;;2.90;1.00;;;22.20;99.90;;;;;;5074981;28;20059;-70
2022/07/09 09:14:02;;;;;;;3.97;1.00;;;22.20;99.90;;;;;;5074786;28;20048;-70
2022/07/09 09:16:28;;;;;;;4.55;0.93;;;22.20;99.90;;;;;;5074599;28;20036;-70
2022/07/09 09:18:53;;;;;;;3.60;1.20;;;22.20;99.90;;;;;;5074619;28;20052;-70
2022/07/09 09:21:21;;;;;;;3.13;1.15;;;22.10;99.90;;;;;;5075365;28;20032;-70
2022/07/09 09:23:52;;;;;;;3.33;1.15;;;22.10;99.90;;;;;;5074656;28;20389;-70
2022/07/09 09:26:23;;;;;;;3.97;0.90;;;22.30;99.90;;;;;;5057889;28;20045;-70
2022/07/09 09:28:53;;;;;;;4.60;1.15;;;22.50;99.90;;;;;;5074664;28;20067;-70
2022/07/09 09:31:33;;;;;;;5.68;1.20;;;22.70;99.90;;;;;;5074434;28;20047;-70
2022/07/09 09:34:04;;;;;;;4.03;1.45;;;23.00;99.90;;;;;;5074146;28;20051;-70
2022/07/09 09:36:42;;;;;;;6.53;1.00;;;23.20;99.90;;;;;;5074295;28;20045;-70
2022/07/09 09:39:26;;;;;;;5.30;1.00;;;23.20;99.90;;;;;;5057545;28;20162;-70
2022/07/09 09:41:59;;;;;;;4.80;0.90;;;23.00;99.90;;;;;;5074177;28;20072;-70
2022/07/09 09:44:37;;;;;;;1.58;0.70;;;22.80;99.90;;;;;;5074190;28;20044;-70
2022/07/09 09:47:04;;;;;;;6.75;1.13;;;22.70;99.90;;;;;;5074171;28;20118;-70
2022/07/09 09:49:30;;;;;;;3.75;1.02;;;22.70;99.90;;;;;;5074034;28;20045;-70
2022/07/09 09:52:06;;;;;;;3.50;1.10;;;22.80;99.90;;;;;;5073942;28;20049;-70
2022/07/09 09:54:33;;;;;;;4.20;1.05;;;22.90;99.90;;;;;;5073885;28;20059;-70
2022/07/09 09:57:00;;;;;;;5.72;1.50;;;22.90;99.90;;;;;;5073914;28;20488;-70
2022/07/09 09:59:26;;;;;;;5.63;0.98;;;22.70;99.90;;;;;;5073849;28;20041;-70
2022/07/09 10:01:52;;;;;;;4.57;1.08;;;22.50;99.90;;;;;;5073597;28;20378;-70
2022/07/09 10:04:18;;;;;;;7.03;1.30;;;22.30;99.90;;;;;;5072836;28;20507;-70
2022/07/09 10:06:44;;;;;;;5.30;1.10;;;22.30;99.90;;;;;;5073957;28;20405;-70
2022/07/09 10:09:14;;;;;;;8.35;1.20;;;22.60;99.90;;;;;;5073439;28;20443;-70
2022/07/09 10:11:46;;;;;;;6.65;1.20;;;22.90;99.90;;;;;;5073628;28;20123;-70
2022/07/09 10:14:24;;;;;;;4.20;0.80;;;23.20;99.90;;;;;;5073694;28;20489;-69
2022/07/09 10:16:51;;;;;;;3.90;1.10;;;23.30;99.90;;;;;;5057043;28;20090;-69
2022/07/09 10:19:30;;;;;;;4.10;1.02;;;23.20;99.90;;;;;;5073447;28;20045;-70
2022/07/09 10:21:57;;;;;;;6.10;1.35;;;23.00;99.90;;;;;;5073351;28;20074;-70
2022/07/09 10:24:28;;;;;;;5.43;1.15;;;22.80;99.90;;;;;;5073385;28;20046;-70
2022/07/09 10:27:06;;;;;;;6.70;1.23;;;22.80;99.90;;;;;;5073321;28;20080;-70
2022/07/09 10:29:34;;;;;;;4.60;0.95;;;23.10;99.90;;;;;;5073360;28;20055;-70
2022/07/09 10:32:01;;;;;;;9.73;3.03;;;23.50;99.90;;;;;;5073212;28;20040;-70
2022/07/09 10:35:01;;;;;;;6.70;2.15;;;23.80;99.90;;;;;;5056631;28;20140;-70
2022/07/09 10:37:34;;;;;;;5.97;1.00;;;24.10;99.90;;;;;;5073148;28;20079;-70
2022/07/09 10:40:10;;;;;;;6.00;1.30;;;24.30;99.90;;;;;;5074548;28;20033;-69
2022/07/09 10:42:36;;;;;;;7.30;1.33;;;24.40;99.90;;;;;;5072716;28;20044;-70
2022/07/09 10:45:02;;;;;;;2.90;0.80;;;24.30;99.90;;;;;;5073242;28;20048;-70
2022/07/09 10:47:52;;;;;;;6.45;1.23;;;24.30;99.90;;;;;;5073207;28;20044;-70
2022/07/09 10:50:17;;;;;;;4.57;1.20;;;24.30;99.90;;;;;;5073130;28;20500;-70
2022/07/09 10:52:43;;;;;;;4.90;1.10;;;24.30;99.90;;;;;;5056146;28;20090;-70
2022/07/09 10:55:09;;;;;;;4.15;1.05;;;24.30;99.90;;;;;;5072642;28;20047;-70
2022/07/09 10:57:35;;;;;;;3.33;0.70;;;24.30;99.90;;;;;;5072918;28;20044;-73
2022/07/09 11:00:00;;;;;;;7.38;0.90;;;24.20;99.90;;;;;;5072646;28;20463;-73
2022/07/09 11:02:26;;;;;;;4.78;1.10;;;24.10;99.90;;;;;;5072516;28;20059;-73
2022/07/09 11:04:52;;;;;;;4.57;0.90;;;24.00;99.90;;;;;;5072438;28;20123;-73
2022/07/09 11:07:20;;;;;;;3.40;1.08;;;24.00;99.90;;;;;;5072426;28;20071;-73
2022/07/09 11:09:46;;;;;;;9.13;1.20;;;24.00;99.90;;;;;;5072515;28;20056;-73
2022/07/09 11:12:15;;;;;;;9.80;1.38;;;24.10;99.90;;;;;;5072689;28;20401;-73
2022/07/09 11:14:50;;;;;;;6.47;1.50;;;24.00;99.90;;;;;;5071966;28;20484;-73
2022/07/09 11:17:20;;;;;;;6.68;1.52;;;23.80;99.90;;;;;;5072369;28;20036;-74
2022/07/09 11:19:47;;;;;;;7.43;2.08;;;23.40;99.90;;;;;;5055698;28;20040;-74
2022/07/09 11:22:15;;;;;;;7.47;1.65;;;23.40;99.90;;;;;;5055574;28;20066;-74
2022/07/09 11:24:41;;;;;;;9.10;1.95;;;23.50;99.90;;;;;;5072333;28;20068;-74
2022/07/09 11:27:08;;;;;;;6.90;1.83;;;23.70;99.90;;;;;;5072444;28;20075;-74
2022/07/09 11:29:36;;;;;;;10.65;1.90;;;23.90;99.90;;;;;;5072109;28;20098;-74
2022/07/09 11:32:03;;;;;;;7.70;1.63;;;24.10;99.90;;;;;;5072036;28;20519;-73
2022/07/09 11:34:29;;;;;;;8.98;1.83;;;24.30;99.90;;;;;;5073005;28;20099;-74
2022/07/09 11:36:56;;;;;;;6.45;1.65;;;24.20;99.90;;;;;;5055412;28;20524;-74
2022/07/09 11:39:25;;;;;;;12.98;1.80;;;24.10;99.90;;;;;;5072093;28;20052;-74
2022/07/09 11:41:50;;;;;;;9.68;1.70;;;24.00;99.90;;;;;;5071939;28;20045;-74
2022/07/09 11:44:20;;;;;;;11.05;2.10;;;23.90;99.90;;;;;;5071967;28;20041;-74
2022/07/09 11:46:46;;;;;;;9.13;1.40;;;24.00;99.90;;;;;;5072089;28;20432;-74
2022/07/09 11:49:16;;;;;;;5.90;1.40;;;24.10;99.90;;;;;;5071929;28;20123;-74
2022/07/09 11:51:42;;;;;;;13.73;1.77;;;24.40;99.90;;;;;;5072145;28;20048;-74
2022/07/09 11:54:08;;;;;;;7.07;1.67;;;24.80;99.90;;;;;;5071781;28;20040;-74
2022/07/09 11:56:45;;;;;;;7.57;1.50;;;24.80;99.90;;;;;;5071865;28;20400;-74
2022/07/09 11:59:11;;;;;;;6.78;1.33;;;25.00;99.90;;;;;;5071812;28;20432;-74
2022/07/09 12:01:38;;;;;;;11.05;2.00;;;25.10;97.60;;;;;;5072137;28;20036;-74
2022/07/09 12:04:03;;;;;;;5.45;1.15;;;25.10;99.40;;;;;;5071645;28;20160;-74
2022/07/09 12:06:29;;;;;;;5.53;1.50;;;25.10;98.60;;;;;;5071724;28;20040;-74
2022/07/09 12:09:02;;;;;;;10.23;1.70;;;25.30;98.30;;;;;;5055005;28;20049;-74
2022/07/09 12:11:29;;;;;;;4.22;1.20;;;25.50;94.50;;;;;;5071655;28;20044;-74
2022/07/09 12:13:55;;;;;;;9.32;1.15;;;25.50;93.70;;;;;;5071765;28;20049;-74
2022/07/09 12:16:21;;;;;;;6.45;1.40;;;25.50;90.40;;;;;;5071990;28;20076;-74
2022/07/09 12:18:46;;;;;;;4.05;0.90;;;25.60;88.80;;;;;;5055189;28;20455;-74
2022/07/09 12:21:12;;;;;;;5.43;1.05;;;25.60;90.00;;;;;;5055005;28;20500;-74
2022/07/09 12:23:38;;;;;;;5.30;0.80;;;25.40;80.60;;;;;;5071780;28;20037;-74
2022/07/09 12:26:04;;;;;;;2.72;0.75;;;25.30;78.90;;;;;;5072615;28;20408;-74
2022/07/09 12:28:29;;;;;;;3.88;0.75;;;25.40;79.00;;;;;;5059184;28;20036;-74
2022/07/09 12:30:55;;;;;;;3.28;0.80;;;25.50;80.00;;;;;;5075554;28;20032;-74
2022/07/09 12:33:20;;;;;;;6.53;1.10;;;25.60;73.50;;;;;;5075688;28;20040;-74
2022/07/09 12:35:46;;;;;;;4.28;0.80;;;25.60;71.10;;;;;;5075427;28;20048;-74
2022/07/09 12:38:11;;;;;;;4.00;0.80;;;25.60;71.10;;;;;;5075402;28;20041;-74